createdAt,value
2023-02-19T00:01:52.614Z,10.13
2023-02-19T00:04:22.552Z,10.19
2023-02-19T00:06:51.543Z,10.22
2023-02-19T00:09:20.449Z,10.25
2023-02-19T00:11:48.899Z,10.23
2023-02-19T00:14:20.879Z,10.19
2023-02-19T00:16:49.926Z,10.18
2023-02-19T00:19:20.629Z,10.19
2023-02-19T00:21:51.845Z,10.19
2023-02-19T00:24:21.129Z,10.20
2023-02-19T00:26:49.602Z,10.23
2023-02-19T00:29:20.426Z,10.22
2023-02-19T00:31:49.092Z,10.25
2023-02-19T00:34:17.535Z,10.25
2023-02-19T00:36:45.801Z,10.26
2023-02-19T00:39:18.682Z,10.32
2023-02-19T00:41:47.286Z,10.32
2023-02-19T00:44:16.397Z,10.32
2023-02-19T00:46:47.406Z,10.32
2023-02-19T00:49:21.974Z,10.30
2023-02-19T00:51:52.253Z,10.21
2023-02-19T00:54:22.732Z,10.14
2023-02-19T00:56:51.801Z,10.09
2023-02-19T00:59:20.260Z,10.03
2023-02-19T01:01:49.832Z,9.97
2023-02-19T01:04:18.758Z,9.92
2023-02-19T01:06:48.926Z,9.84
2023-02-19T01:09:17.172Z,9.81
2023-02-19T01:11:45.122Z,9.77
2023-02-19T01:14:13.289Z,9.74
2023-02-19T01:16:41.362Z,9.70
2023-02-19T01:19:09.636Z,9.68
2023-02-19T01:21:37.869Z,9.64
2023-02-19T01:24:06.341Z,9.60
2023-02-19T01:26:34.465Z,9.57
2023-02-19T01:29:04.995Z,9.55
2023-02-19T01:31:33.785Z,9.53
2023-02-19T01:34:04.430Z,9.51
2023-02-19T01:36:34.022Z,9.48
2023-02-19T01:39:05.249Z,9.46
2023-02-19T01:41:38.135Z,9.45
2023-02-19T01:44:12.384Z,9.43
2023-02-19T01:46:42.783Z,9.41
2023-02-19T01:49:37.596Z,9.38
2023-02-19T01:52:19.190Z,9.35
2023-02-19T01:54:49.690Z,9.31
2023-02-19T01:57:24.346Z,9.30
2023-02-19T01:59:55.361Z,9.28
2023-02-19T02:02:28.690Z,9.28
2023-02-19T02:05:00.312Z,9.25
2023-02-19T02:07:47.026Z,9.23
2023-02-19T02:10:20.801Z,9.19
2023-02-19T02:12:50.664Z,9.18
2023-02-19T02:15:19.655Z,9.16
2023-02-19T02:18:06.739Z,9.14
2023-02-19T02:20:59.503Z,9.12
2023-02-19T02:24:23.821Z,9.09
2023-02-19T02:27:11.837Z,9.06
2023-02-19T02:30:14.167Z,9.03
2023-02-19T02:33:12.326Z,9.00
2023-02-19T02:35:52.572Z,8.97
2023-02-19T02:38:25.628Z,8.95
2023-02-19T02:40:55.024Z,8.92
2023-02-19T02:43:23.391Z,8.90
2023-02-19T02:45:52.359Z,8.87
2023-02-19T02:48:30.050Z,8.86
2023-02-19T02:51:13.598Z,8.85
2023-02-19T02:54:39.604Z,8.84
2023-02-19T02:57:14.892Z,8.81
2023-02-19T03:00:10.339Z,8.79
2023-02-19T03:02:40.270Z,8.75
2023-02-19T03:05:42.021Z,8.71
2023-02-19T03:08:29.664Z,8.67
2023-02-19T03:11:28.969Z,8.64
2023-02-19T03:14:23.087Z,8.63
2023-02-19T03:17:15.212Z,8.62
2023-02-19T03:19:49.895Z,8.63
2023-02-19T03:22:24.112Z,8.62
2023-02-19T03:25:21.272Z,8.62
2023-02-19T03:27:51.011Z,8.66
2023-02-19T03:30:24.044Z,8.67
2023-02-19T03:32:58.131Z,8.70
2023-02-19T03:35:30.727Z,8.70
2023-02-19T03:38:37.235Z,8.73
2023-02-19T03:41:35.830Z,8.73
2023-02-19T03:44:15.949Z,8.75
2023-02-19T03:47:03.814Z,8.75
2023-02-19T03:49:48.657Z,8.77
2023-02-19T03:52:24.591Z,8.76
2023-02-19T03:55:04.180Z,8.77
2023-02-19T03:57:48.019Z,8.75
2023-02-19T04:00:39.541Z,8.68
2023-02-19T04:03:45.399Z,8.64
2023-02-19T04:06:19.836Z,8.55
2023-02-19T04:08:52.387Z,8.49
2023-02-19T04:11:22.620Z,8.44
2023-02-19T04:14:03.282Z,8.38
2023-02-19T04:16:33.876Z,8.32
2023-02-19T04:19:19.806Z,8.32
2023-02-19T04:21:50.063Z,8.27
2023-02-19T04:24:29.783Z,8.22
2023-02-19T04:26:58.881Z,8.17
2023-02-19T04:29:26.952Z,8.14
2023-02-19T04:31:55.224Z,8.13
2023-02-19T04:34:23.397Z,8.11
2023-02-19T04:36:52.085Z,8.08
2023-02-19T04:39:20.904Z,8.06
2023-02-19T04:41:48.770Z,8.03
2023-02-19T04:44:16.695Z,8.00
2023-02-19T04:46:44.774Z,7.99
2023-02-19T04:49:12.948Z,7.94
2023-02-19T04:51:41.537Z,7.94
2023-02-19T04:54:09.910Z,7.93
2023-02-19T04:56:38.287Z,7.95
2023-02-19T04:59:06.474Z,7.98
2023-02-19T05:01:34.770Z,7.98
2023-02-19T05:04:03.394Z,7.97
2023-02-19T05:06:31.502Z,7.95
2023-02-19T05:08:59.875Z,7.94
2023-02-19T05:11:28.195Z,7.93
2023-02-19T05:13:56.634Z,7.98
2023-02-19T05:16:24.711Z,8.02
2023-02-19T05:18:53.094Z,8.07
2023-02-19T05:21:21.155Z,8.12
2023-02-19T05:23:49.126Z,8.18
2023-02-19T05:26:21.010Z,8.26
2023-02-19T05:28:52.467Z,8.35
2023-02-19T05:31:21.532Z,8.39
2023-02-19T05:33:52.991Z,8.47
2023-02-19T05:36:22.287Z,8.56
2023-02-19T05:38:57.385Z,8.68
2023-02-19T05:41:31.104Z,8.77
2023-02-19T05:43:59.262Z,8.87
2023-02-19T05:46:29.923Z,8.97
2023-02-19T05:49:00.735Z,9.07
2023-02-19T05:51:29.458Z,9.16
2023-02-19T05:53:58.136Z,9.23
2023-02-19T05:56:39.545Z,9.32
2023-02-19T05:59:22.470Z,9.43
2023-02-19T06:01:52.765Z,9.52
2023-02-19T06:04:21.059Z,9.53
2023-02-19T06:06:49.832Z,9.55
2023-02-19T06:09:17.819Z,9.62
2023-02-19T06:11:46.712Z,9.68
2023-02-19T06:14:14.676Z,9.72
2023-02-19T06:16:43.036Z,9.77
2023-02-19T06:19:11.091Z,9.82
2023-02-19T06:21:39.189Z,9.84
2023-02-19T06:24:10.642Z,9.89
2023-02-19T06:26:39.027Z,9.93
2023-02-19T06:29:07.511Z,9.97
2023-02-19T06:31:35.777Z,10.06
2023-02-19T06:34:05.294Z,10.10
2023-02-19T06:36:33.966Z,10.13
2023-02-19T06:39:04.277Z,10.20
2023-02-19T06:41:32.579Z,10.22
2023-02-19T06:44:00.647Z,10.23
2023-02-19T06:46:30.910Z,10.32
2023-02-19T06:48:59.242Z,10.40
2023-02-19T06:51:29.792Z,10.47
2023-02-19T06:53:58.469Z,10.53
2023-02-19T06:56:32.366Z,10.61
2023-02-19T06:59:03.572Z,10.67
2023-02-19T07:01:33.856Z,10.77
2023-02-19T07:04:02.493Z,10.83
2023-02-19T07:06:31.621Z,10.87
2023-02-19T07:09:00.623Z,10.92
2023-02-19T07:11:34.637Z,11.06
2023-02-19T07:14:07.637Z,11.24
2023-02-19T07:16:36.526Z,11.40
2023-02-19T07:19:04.601Z,11.53
2023-02-19T07:21:37.817Z,11.56
2023-02-19T07:24:06.853Z,11.58
2023-02-19T07:26:34.942Z,11.51
2023-02-19T07:29:02.933Z,11.53
2023-02-19T07:31:31.089Z,11.51
2023-02-19T07:33:59.253Z,11.53
2023-02-19T07:36:27.219Z,11.50
2023-02-19T07:39:00.593Z,11.57
2023-02-19T07:41:28.591Z,11.71
2023-02-19T07:43:58.541Z,11.88
2023-02-19T07:46:26.529Z,12.05
2023-02-19T07:48:54.556Z,12.30
2023-02-19T07:51:23.502Z,12.42
2023-02-19T07:53:51.987Z,12.49
2023-02-19T07:56:20.837Z,12.74
2023-02-19T07:58:49.093Z,12.93
2023-02-19T08:01:40.228Z,13.12
2023-02-19T08:04:10.748Z,13.18
2023-02-19T08:06:39.475Z,13.15
2023-02-19T08:09:08.306Z,13.21
2023-02-19T08:11:55.323Z,13.44
2023-02-19T08:14:27.732Z,13.43
2023-02-19T08:16:56.679Z,13.27
2023-02-19T08:19:25.072Z,13.24
2023-02-19T08:21:53.796Z,13.18
2023-02-19T08:24:21.805Z,13.20
2023-02-19T08:26:50.005Z,13.25
2023-02-19T08:29:18.274Z,13.47
2023-02-19T08:31:46.456Z,13.72
2023-02-19T08:34:15.540Z,14.11
2023-02-19T08:36:44.349Z,14.35
2023-02-19T08:39:12.317Z,14.54
2023-02-19T08:41:40.516Z,14.52
2023-02-19T08:44:08.489Z,14.21
2023-02-19T08:46:36.448Z,14.08
2023-02-19T08:49:04.780Z,14.21
2023-02-19T08:51:32.963Z,13.81
2023-02-19T08:54:03.498Z,13.55
2023-02-19T08:56:31.772Z,13.78
2023-02-19T08:58:59.744Z,13.88
2023-02-19T09:01:27.788Z,13.74
2023-02-19T09:03:55.809Z,13.80
2023-02-19T09:06:23.842Z,13.89
2023-02-19T09:08:52.167Z,13.98
2023-02-19T09:11:20.203Z,13.99
2023-02-19T09:13:48.195Z,14.16
2023-02-19T09:16:16.111Z,14.26
2023-02-19T09:18:45.945Z,14.41
2023-02-19T09:21:14.129Z,14.56
2023-02-19T09:23:42.285Z,14.66
2023-02-19T09:26:11.483Z,14.94
2023-02-19T09:28:41.982Z,15.26
2023-02-19T09:31:13.251Z,15.59
2023-02-19T09:33:46.211Z,15.82
2023-02-19T09:36:16.221Z,15.93
2023-02-19T09:38:45.270Z,16.36
2023-02-19T09:41:32.982Z,16.69
2023-02-19T09:44:04.329Z,17.22
2023-02-19T09:46:42.258Z,17.48
2023-02-19T09:49:18.480Z,17.75
2023-02-19T09:51:52.790Z,17.91
2023-02-19T09:54:25.084Z,17.87
2023-02-19T09:56:57.891Z,17.79
2023-02-19T09:59:48.178Z,17.54
2023-02-19T10:02:20.134Z,17.24
2023-02-19T10:04:51.391Z,17.05
2023-02-19T10:07:23.968Z,17.09
2023-02-19T10:10:01.189Z,16.91
2023-02-19T10:12:35.196Z,16.72
2023-02-19T10:15:17.170Z,16.70
2023-02-19T10:17:45.537Z,16.86
2023-02-19T10:20:17.178Z,16.75
2023-02-19T10:22:45.875Z,16.85
2023-02-19T10:25:17.264Z,16.84
2023-02-19T10:27:45.617Z,16.82
2023-02-19T10:30:22.078Z,16.87
2023-02-19T10:33:08.840Z,17.00
2023-02-19T10:35:38.395Z,17.15
2023-02-19T10:38:09.943Z,17.17
2023-02-19T10:40:45.089Z,17.30
2023-02-19T10:43:37.301Z,17.32
2023-02-19T10:46:28.575Z,17.55
2023-02-19T10:49:05.527Z,17.33
2023-02-19T10:51:38.219Z,17.15
2023-02-19T10:54:31.370Z,17.12
2023-02-19T10:57:18.839Z,17.05
2023-02-19T10:59:58.279Z,17.05
2023-02-19T11:02:27.014Z,17.19
2023-02-19T11:05:12.241Z,17.65
2023-02-19T11:07:49.962Z,17.61
2023-02-19T11:10:37.314Z,17.64
2023-02-19T11:13:13.449Z,17.76
2023-02-19T11:15:41.853Z,17.52
2023-02-19T11:18:12.804Z,17.25
2023-02-19T11:20:59.507Z,17.30
2023-02-19T11:23:35.985Z,17.36
2023-02-19T11:26:14.896Z,17.48
2023-02-19T11:28:44.218Z,17.71
2023-02-19T11:31:32.143Z,18.25
2023-02-19T11:34:01.322Z,19.16
2023-02-19T11:36:34.955Z,20.00
2023-02-19T11:39:16.757Z,20.57
2023-02-19T11:41:54.051Z,20.49
2023-02-19T11:44:34.780Z,20.21
2023-02-19T11:47:27.632Z,20.92
2023-02-19T11:50:10.925Z,20.94
2023-02-19T11:52:50.606Z,20.72
2023-02-19T11:55:25.955Z,19.93
2023-02-19T11:58:12.077Z,19.13
2023-02-19T12:01:09.763Z,18.49
2023-02-19T12:04:01.439Z,17.86
2023-02-19T12:06:45.996Z,17.55
2023-02-19T12:09:27.278Z,17.53
2023-02-19T12:12:01.290Z,17.45
2023-02-19T12:14:41.341Z,17.37
2023-02-19T12:17:34.195Z,17.20
2023-02-19T12:20:14.754Z,16.97
2023-02-19T12:23:15.160Z,16.76
2023-02-19T12:25:55.120Z,16.53
2023-02-19T12:28:35.406Z,16.18
2023-02-19T12:31:35.319Z,15.78
2023-02-19T12:34:25.122Z,15.53
2023-02-19T12:37:10.750Z,15.53
2023-02-19T12:39:55.850Z,15.61
2023-02-19T12:42:45.748Z,15.80
2023-02-19T12:45:28.143Z,15.61
2023-02-19T12:48:06.454Z,15.26
2023-02-19T12:50:36.068Z,14.92
2023-02-19T12:53:17.647Z,14.67
2023-02-19T12:55:46.676Z,14.37
2023-02-19T12:58:40.943Z,14.13
2023-02-19T13:01:14.259Z,13.91
2023-02-19T13:03:50.288Z,13.76
2023-02-19T13:06:28.084Z,13.63
2023-02-19T13:09:07.576Z,13.60
2023-02-19T13:12:04.582Z,13.65
2023-02-19T13:15:12.796Z,13.56
2023-02-19T13:17:56.612Z,13.28
2023-02-19T13:20:31.987Z,13.06
2023-02-19T13:23:27.494Z,12.94
2023-02-19T13:26:25.765Z,12.80
2023-02-19T13:29:19.948Z,12.65
2023-02-19T13:32:12.993Z,12.54
2023-02-19T13:35:23.486Z,12.46
2023-02-19T13:37:54.575Z,12.38
2023-02-19T13:40:25.360Z,12.22
2023-02-19T13:42:57.157Z,12.15
2023-02-19T13:45:42.417Z,12.01
2023-02-19T13:48:31.144Z,11.98
2023-02-19T13:51:34.771Z,12.02
2023-02-19T13:54:14.274Z,11.93
2023-02-19T13:56:42.500Z,11.78
2023-02-19T13:59:37.144Z,11.67
2023-02-19T14:02:14.714Z,11.54
2023-02-19T14:04:42.979Z,11.49
2023-02-19T14:07:11.005Z,11.37
2023-02-19T14:09:43.931Z,11.32
2023-02-19T14:12:16.011Z,11.22
2023-02-19T14:14:51.782Z,11.15
2023-02-19T14:17:48.952Z,11.01
2023-02-19T14:20:16.929Z,11.92
2023-02-19T14:22:49.085Z,13.18
2023-02-19T14:25:50.438Z,14.17
2023-02-19T14:28:35.511Z,15.43
2023-02-19T14:31:11.072Z,16.28
2023-02-19T14:33:52.617Z,16.34
2023-02-19T14:36:34.248Z,15.76
2023-02-19T14:39:12.545Z,14.97
2023-02-19T14:41:44.141Z,14.34
2023-02-19T14:44:18.079Z,13.84
2023-02-19T14:46:58.167Z,13.43
2023-02-19T14:49:33.323Z,13.18
2023-02-19T14:52:06.584Z,12.97
2023-02-19T14:54:48.592Z,12.71
2023-02-19T14:57:31.164Z,12.61
2023-02-19T15:00:16.690Z,12.42
2023-02-19T15:02:44.864Z,12.31
2023-02-19T15:05:23.693Z,12.20
2023-02-19T15:07:54.398Z,12.13
2023-02-19T15:10:23.166Z,12.05
2023-02-19T15:12:54.301Z,12.04
2023-02-19T15:15:25.505Z,11.97
2023-02-19T15:17:55.796Z,11.86
2023-02-19T15:20:28.462Z,11.70
2023-02-19T15:22:59.654Z,11.63
2023-02-19T15:25:34.591Z,11.55
2023-02-19T15:28:32.797Z,11.46
2023-02-19T15:31:00.713Z,11.37
2023-02-19T15:33:29.133Z,11.34
2023-02-19T15:36:00.992Z,11.37
2023-02-19T15:38:29.761Z,11.42
2023-02-19T15:40:58.818Z,11.47
2023-02-19T15:43:49.991Z,11.48
2023-02-19T15:46:24.832Z,11.53
2023-02-19T15:49:33.545Z,11.57
2023-02-19T15:52:08.294Z,11.57
2023-02-19T15:55:09.717Z,11.48
2023-02-19T15:57:43.728Z,11.28
2023-02-19T16:00:19.174Z,11.11
2023-02-19T16:02:48.806Z,10.97
2023-02-19T16:05:26.102Z,10.87
2023-02-19T16:08:20.031Z,10.84
2023-02-19T16:10:57.233Z,10.74
2023-02-19T16:13:31.634Z,10.59
2023-02-19T16:16:15.410Z,10.32
2023-02-19T16:18:49.169Z,10.01
2023-02-19T16:21:22.191Z,9.77
2023-02-19T16:23:57.080Z,9.70
2023-02-19T16:26:25.482Z,9.58
2023-02-19T16:28:54.994Z,9.52
2023-02-19T16:31:24.349Z,9.46
2023-02-19T16:33:52.577Z,9.31
2023-02-19T16:36:21.428Z,9.09
2023-02-19T16:39:08.161Z,8.87
2023-02-19T16:41:45.460Z,8.67
2023-02-19T16:44:27.553Z,8.45
2023-02-19T16:47:02.357Z,8.37
2023-02-19T16:49:31.184Z,8.32
2023-02-19T16:52:02.137Z,8.30
2023-02-19T16:54:31.920Z,8.31
2023-02-19T16:56:59.890Z,8.33
2023-02-19T16:59:27.862Z,8.37
2023-02-19T17:01:56.239Z,8.42
2023-02-19T17:04:24.522Z,8.47
2023-02-19T17:06:52.594Z,8.52
2023-02-19T17:09:20.767Z,8.57
2023-02-19T17:11:48.841Z,8.62
2023-02-19T17:14:16.914Z,8.67
2023-02-19T17:16:45.143Z,8.75
2023-02-19T17:19:18.923Z,8.80
2023-02-19T17:21:47.386Z,8.85
2023-02-19T17:24:19.566Z,8.82
2023-02-19T17:26:48.442Z,8.83
2023-02-19T17:29:18.564Z,8.83
2023-02-19T17:31:46.812Z,8.90
2023-02-19T17:34:15.224Z,8.95
2023-02-19T17:36:45.633Z,8.97
2023-02-19T17:39:15.653Z,9.04
2023-02-19T17:41:43.834Z,9.09
2023-02-19T17:44:12.115Z,9.17
2023-02-19T17:46:41.306Z,9.19
2023-02-19T17:49:12.664Z,9.22
2023-02-19T17:51:40.775Z,9.17
2023-02-19T17:54:09.634Z,9.16
2023-02-19T17:56:40.155Z,9.18
2023-02-19T17:59:09.338Z,9.18
2023-02-19T18:01:37.690Z,9.17
2023-02-19T18:04:06.236Z,9.19
2023-02-19T18:06:35.092Z,9.19
2023-02-19T18:09:06.030Z,9.20
2023-02-19T18:11:35.925Z,9.23
2023-02-19T18:14:05.247Z,9.23
2023-02-19T18:16:33.340Z,9.27
2023-02-19T18:19:02.437Z,9.32
2023-02-19T18:21:30.691Z,9.37
2023-02-19T18:23:58.656Z,9.40
2023-02-19T18:26:26.721Z,9.41
2023-02-19T18:28:54.898Z,9.43
2023-02-19T18:31:23.048Z,9.48
2023-02-19T18:33:51.555Z,9.49
2023-02-19T18:36:19.524Z,9.52
2023-02-19T18:38:47.807Z,9.56
2023-02-19T18:41:20.319Z,9.60
2023-02-19T18:43:48.964Z,9.63
2023-02-19T18:46:20.979Z,9.49
2023-02-19T18:48:49.109Z,9.27
2023-02-19T18:51:17.191Z,9.12
2023-02-19T18:53:45.468Z,8.96
2023-02-19T18:56:13.740Z,8.82
2023-02-19T18:58:41.873Z,8.69
2023-02-19T19:01:10.471Z,8.52
2023-02-19T19:03:39.068Z,8.28
2023-02-19T19:06:07.257Z,8.10
2023-02-19T19:08:35.224Z,7.94
2023-02-19T19:11:03.773Z,7.84
2023-02-19T19:13:31.669Z,7.70
2023-02-19T19:15:59.892Z,7.63
2023-02-19T19:18:28.023Z,7.56
2023-02-19T19:21:03.580Z,7.44
2023-02-19T19:23:31.623Z,7.35
2023-02-19T19:25:59.606Z,7.13
2023-02-19T19:28:27.779Z,7.04
2023-02-19T19:30:55.760Z,6.90
2023-02-19T19:33:23.833Z,6.82
2023-02-19T19:35:52.000Z,6.78
2023-02-19T19:38:20.062Z,6.69
2023-02-19T19:40:48.142Z,6.68
2023-02-19T19:43:16.210Z,6.62
2023-02-19T19:45:44.341Z,6.62
2023-02-19T19:48:12.367Z,6.63
2023-02-19T19:50:40.638Z,6.62
2023-02-19T19:53:08.716Z,6.62
2023-02-19T19:55:36.876Z,6.62
2023-02-19T19:58:05.029Z,6.66
2023-02-19T20:00:33.019Z,6.69
2023-02-19T20:03:02.078Z,6.61
2023-02-19T20:05:30.419Z,6.56
2023-02-19T20:07:58.456Z,6.50
2023-02-19T20:10:26.448Z,6.44
2023-02-19T20:12:54.520Z,6.33
2023-02-19T20:15:23.724Z,6.24
2023-02-19T20:17:51.984Z,6.16
2023-02-19T20:20:20.469Z,6.13
2023-02-19T20:22:50.108Z,6.06
2023-02-19T20:25:20.142Z,5.99
2023-02-19T20:27:49.547Z,5.89
2023-02-19T20:30:20.215Z,5.81
2023-02-19T20:32:48.287Z,5.73
2023-02-19T20:35:17.702Z,5.65
2023-02-19T20:37:48.132Z,5.58
2023-02-19T20:40:17.622Z,5.50
2023-02-19T20:42:45.592Z,5.47
2023-02-19T20:45:16.785Z,5.43
2023-02-19T20:47:45.028Z,5.42
2023-02-19T20:50:13.502Z,5.42
2023-02-19T20:52:41.594Z,5.43
2023-02-19T20:55:09.952Z,5.38
2023-02-19T20:57:38.527Z,5.41
2023-02-19T21:00:08.403Z,5.34
2023-02-19T21:02:36.476Z,5.35
2023-02-19T21:05:05.200Z,5.36
2023-02-19T21:07:33.506Z,5.37
2023-02-19T21:10:01.761Z,5.36
2023-02-19T21:12:29.935Z,5.34
2023-02-19T21:14:59.236Z,5.38
2023-02-19T21:17:27.307Z,5.45
2023-02-19T21:19:55.990Z,5.53
2023-02-19T21:22:23.964Z,5.61
2023-02-19T21:24:53.156Z,5.69
2023-02-19T21:27:21.195Z,5.77
2023-02-19T21:29:49.414Z,5.85
2023-02-19T21:32:17.466Z,5.91
2023-02-19T21:34:45.655Z,5.95
2023-02-19T21:37:13.627Z,5.98
2023-02-19T21:39:42.911Z,5.98
2023-02-19T21:42:11.103Z,5.96
2023-02-19T21:44:39.073Z,5.91
2023-02-19T21:47:07.140Z,5.92
2023-02-19T21:49:35.218Z,5.92
2023-02-19T21:52:03.417Z,5.83
2023-02-19T21:54:31.566Z,5.74
2023-02-19T21:57:02.407Z,5.63
2023-02-19T21:59:30.464Z,5.58
2023-02-19T22:01:58.734Z,5.47
2023-02-19T22:04:27.530Z,5.39
2023-02-19T22:06:56.926Z,5.30
2023-02-19T22:09:24.873Z,5.26
2023-02-19T22:11:53.176Z,5.19
2023-02-19T22:14:21.458Z,5.10
2023-02-19T22:16:49.409Z,4.97
2023-02-19T22:19:19.545Z,4.84
2023-02-19T22:21:47.527Z,4.82
2023-02-19T22:24:21.852Z,4.79
2023-02-19T22:26:51.233Z,4.74
2023-02-19T22:29:19.429Z,4.73
2023-02-19T22:31:47.931Z,4.71
2023-02-19T22:34:17.093Z,4.62
2023-02-19T22:36:45.448Z,4.56
2023-02-19T22:39:20.705Z,4.56
2023-02-19T22:41:49.808Z,4.49
2023-02-19T22:44:17.867Z,4.37
2023-02-19T22:46:52.454Z,4.31
2023-02-19T22:49:22.050Z,4.24
2023-02-19T22:51:52.338Z,4.16
2023-02-19T22:54:25.107Z,4.10
2023-02-19T22:56:56.370Z,4.10
2023-02-19T22:59:25.558Z,4.01
2023-02-19T23:01:54.533Z,3.95
2023-02-19T23:04:25.152Z,3.93
2023-02-19T23:06:53.370Z,3.82
2023-02-19T23:09:25.711Z,3.77
2023-02-19T23:12:01.146Z,3.74
2023-02-19T23:14:29.367Z,3.73
2023-02-19T23:16:57.820Z,3.65
2023-02-19T23:19:26.422Z,3.62
2023-02-19T23:21:54.701Z,3.63
2023-02-19T23:24:22.762Z,3.63
2023-02-19T23:26:52.942Z,3.58
2023-02-19T23:29:27.108Z,3.50
2023-02-19T23:31:55.429Z,3.48
2023-02-19T23:34:25.520Z,3.41
2023-02-19T23:36:54.495Z,3.41
2023-02-19T23:39:22.751Z,3.37
2023-02-19T23:41:54.064Z,3.40
2023-02-19T23:44:24.646Z,3.36
2023-02-19T23:46:52.790Z,3.38
2023-02-19T23:49:21.109Z,3.35
2023-02-19T23:51:49.557Z,3.30
2023-02-19T23:54:17.864Z,3.27
2023-02-19T23:56:45.924Z,3.23
2023-02-19T23:59:14.000Z,3.19
